Аэропорт: Габала. Габала

ICAO: UBBQ

METAR:
2018/05/20 19:00
UBBQ 201900Z 09006KT 9999 BKN110 19/09 Q1017 R16/CLRD// NOSIG RMK MT OP
METAR:
Информация по данной станции не доступна